aviador You're here:

ZBYN Decoded Metar

TAIYUAN in CHINA
Report Time2018-02-25 15:00:00
UTC Time2018-02-25 15:29:29
Flight Rules vfr VFR
Wind100° at 4 kt
W.Decomp.*RWY 13: 3.6 kt HW 1.8 kt LCW
W.Rank100° ranks 4
Current wind is below 100° avg. (4.5)
Visibility8000 m
Phenomena:N/A
Clouds:N/A
Expected CloudBase > 6,000 ft AGL from Temp-Dew spread
CeilingNone
Temp02°C (ISA -8)
Dew Point-13°C (32% RH)
AAT-2.7°C
QNH1016 hPa
Density Alt1,535 ft
Elevation2,556 ft
Report Wrong Elevation
Raw Report
METAR ZBYN 251500Z 10002MPS 8000 NSC 02/M13 Q1016 NOSIG=

Extra information for ZBYN:More info

Metar Taf Metar & Taf Last 4 Metars F.Rules Stats Wind Profile Meteogram Temp Stats Airport Information Weather charts Add Link Nearby VenuesMetar ALERT Operation Metar Decoded Social comments